Date,TemperatureHighF,TemperatureAvgF,TemperatureLowF,DewpointHighF,DewpointAvgF,DewpointLowF,HumidityHigh,HumidityAvg,HumidityLow,PressureMaxIn,PressureMinIn,WindSpeedMaxMPH,WindSpeedAvgMPH,GustSpeedMaxMPH,PrecipitationSumIn
2013-5-1,85,66,58,61,56,52,86,72,42,30.15,29.95,3,0,0,0.00
2013-5-2,86,66,52,63,55,33,94,71,32,30.19,30.04,3,0,0,0.00
2013-5-3,95,71,55,63,48,21,89,50,12,30.05,29.82,8,0,0,0.00
2013-5-4,78,64,56,60,57,52,94,78,52,29.90,29.79,8,0,0,0.00
2013-5-5,68,61,57,56,54,52,86,78,64,29.99,29.87,5,0,0,0.00
2013-5-6,80,65,56,64,58,55,96,80,51,30.07,29.94,2,0,0,0.19
2013-5-7,84,66,56,60,55,50,86,71,43,30.12,30.03,3,0,0,0.00
2013-5-8,81,64,54,60,54,49,87,71,46,30.16,30.11,2,0,0,0.00
2013-5-9,79,63,51,60,55,48,90,76,50,30.15,30.07,4,0,0,0.00
2013-5-10,84,66,54,63,58,51,93,78,48,30.16,30.05,4,0,0,0.00
2013-5-11,78,65,57,63,60,54,95,83,61,30.12,30.02,11,0,12,0.00
2013-5-12,79,67,59,64,61,58,97,82,54,30.11,29.94,8,0,0,0.00
2013-5-13,87,69,58,65,59,55,91,73,46,30.03,29.93,10,0,0,0.00
2013-5-14,78,62,54,62,55,51,95,79,46,30.04,29.94,8,0,0,0.00
2013-5-15,82,64,55,61,56,52,94,78,49,30.11,30.00,4,0,0,0.00
2013-5-16,79,64,56,61,57,53,92,78,53,30.05,29.94,2,0,0,0.00
2013-5-17,82,67,58,62,58,51,92,74,48,30.04,29.95,3,0,0,0.00
2013-5-18,83,66,55,61,56,51,92,73,45,30.10,30.02,1,0,0,0.00
2013-5-19,84,66,53,62,57,49,89,74,47,30.04,29.93,3,0,0,0.00
2013-5-20,86,68,57,65,59,54,93,76,48,30.01,29.92,3,0,0,0.00
2013-5-21,87,69,59,64,60,55,89,76,45,30.00,29.89,3,0,0,0.00
2013-5-22,80,67,54,61,56,49,92,72,48,29.91,29.83,7,0,0,0.00
2013-5-23,82,64,52,58,53,47,87,70,41,29.98,29.88,5,0,0,0.00
2013-5-24,85,65,52,60,54,48,90,71,44,30.06,29.95,2,0,0,0.00
2013-5-25,85,65,51,60,55,48,92,73,42,30.10,30.00,2,0,0,0.00
2013-5-26,86,66,51,60,55,48,92,72,41,30.12,30.03,2,0,0,0.00
2013-5-27,84,66,53,61,56,49,91,71,45,30.06,29.91,4,0,0,0.00
2013-5-28,82,66,56,64,57,52,91,74,49,29.93,29.77,6,0,0,0.00
2013-5-29,85,67,58,63,58,54,92,75,39,29.87,29.74,8,0,0,0.00
2013-5-30,90,71,58,65,60,54,92,72,43,29.92,29.81,1,0,0,0.00
2013-5-31,83,70,62,64,60,57,88,73,51,29.97,29.87,2,0,0,0.00